Time;durP1;ratioP1;P1;durP2;ratioP2;P2;SDS_P1;SDS_P2;PMS_P1;PMS_P2;Temp;Humidity;BMP_temperature;BMP_pressure;BME280_temperature;BME280_humidity;BME280_pressure;Samples;Min_cycle;Max_cycle;Signal;HPM_P1;HPM_P2
2021/01/11 00:01:10;;;;;;;28.95;18.63;;;;;;;;;;5099408;28;20172;-89
2021/01/11 00:03:36;;;;;;;28.13;19.05;;;;;;;;;;5102882;28;20071;-89
2021/01/11 00:06:02;;;;;;;30.40;19.30;;;;;;;;;;5103344;28;20031;-89
2021/01/11 00:08:28;;;;;;;33.53;19.67;;;;;;;;;;5102970;28;20027;-88
2021/01/11 00:10:55;;;;;;;30.55;19.13;;;;;;;;;;5120741;28;20032;-87
2021/01/11 00:13:21;;;;;;;30.58;19.13;;;;;;;;;;5104095;28;20039;-89
2021/01/11 00:15:47;;;;;;;30.08;18.55;;;;;;;;;;5121091;28;20076;-88
2021/01/11 00:18:13;;;;;;;31.85;19.52;;;;;;;;;;5103034;28;20034;-89
2021/01/11 00:20:39;;;;;;;29.15;19.13;;;;;;;;;;5121401;28;20016;-88
2021/01/11 00:23:05;;;;;;;32.55;19.98;;;;;;;;;;5103650;28;20039;-89
2021/01/11 00:25:31;;;;;;;29.58;19.30;;;;;;;;;;5103610;28;20031;-89
2021/01/11 00:27:58;;;;;;;31.92;20.17;;;;;;;;;;5103757;28;20027;-88
2021/01/11 00:30:27;;;;;;;30.33;19.17;;;;;;;;;;5102984;28;20031;-88
2021/01/11 00:32:53;;;;;;;30.50;20.23;;;;;;;;;;5103697;28;20028;-88
2021/01/11 00:35:19;;;;;;;37.35;20.80;;;;;;;;;;5103317;28;20036;-88
2021/01/11 00:37:45;;;;;;;35.50;21.75;;;;;;;;;;5121510;28;20392;-88
2021/01/11 00:40:12;;;;;;;32.17;21.42;;;;;;;;;;5103064;28;20381;-89
2021/01/11 00:42:38;;;;;;;34.28;21.05;;;;;;;;;;5102240;28;20026;-89
2021/01/11 00:45:04;;;;;;;30.40;21.08;;;;;;;;;;5120077;28;20031;-88
2021/01/11 00:47:30;;;;;;;30.08;18.88;;;;;;;;;;5102620;28;20031;-87
2021/01/11 00:49:57;;;;;;;31.92;22.13;;;;;;;;;;5102603;28;20035;-88
2021/01/11 00:52:23;;;;;;;33.55;20.23;;;;;;;;;;5097924;28;20080;-87
2021/01/11 00:54:49;;;;;;;29.27;20.55;;;;;;;;;;5110643;28;20028;-87
2021/01/11 00:57:16;;;;;;;36.08;21.75;;;;;;;;;;5101039;28;20020;-88
2021/01/11 00:59:43;;;;;;;33.40;21.35;;;;;;;;;;5118344;28;20081;-87
2021/01/11 01:02:09;;;;;;;36.97;20.55;;;;;;;;;;5097283;28;20067;-88
2021/01/11 01:04:35;;;;;;;32.33;20.42;;;;;;;;;;5098271;28;20032;-87
2021/01/11 01:07:02;;;;;;;33.28;21.98;;;;;;;;;;5098222;28;20051;-86
2021/01/11 01:09:29;;;;;;;33.22;20.65;;;;;;;;;;5097643;28;20055;-89
2021/01/11 01:11:55;;;;;;;26.33;17.98;;;;;;;;;;5098811;28;20287;-87
2021/01/11 01:14:23;;;;;;;31.83;19.83;;;;;;;;;;5098478;28;20039;-88
2021/01/11 01:16:49;;;;;;;30.48;18.88;;;;;;;;;;5098747;28;20024;-89
2021/01/11 01:19:15;;;;;;;30.42;19.33;;;;;;;;;;5099254;28;20024;-88
2021/01/11 01:21:41;;;;;;;30.83;20.15;;;;;;;;;;5100162;28;20331;-89
2021/01/11 01:24:08;;;;;;;31.50;19.33;;;;;;;;;;5102001;28;20043;-90
2021/01/11 01:26:34;;;;;;;27.60;18.80;;;;;;;;;;5102199;28;20026;-87
2021/01/11 01:29:00;;;;;;;26.27;18.48;;;;;;;;;;5102438;28;20434;-88
2021/01/11 01:31:26;;;;;;;34.47;20.50;;;;;;;;;;5101763;28;20046;-89
2021/01/11 01:33:53;;;;;;;30.60;18.48;;;;;;;;;;5101663;28;20058;-89
2021/01/11 01:36:19;;;;;;;28.73;19.30;;;;;;;;;;5100522;28;20027;-88
2021/01/11 01:38:45;;;;;;;29.85;20.58;;;;;;;;;;5118667;28;20073;-90
2021/01/11 01:41:12;;;;;;;27.85;19.05;;;;;;;;;;5100794;28;20062;-90
2021/01/11 01:43:38;;;;;;;31.35;19.98;;;;;;;;;;5101166;28;20028;-88
2021/01/11 01:46:04;;;;;;;30.70;19.90;;;;;;;;;;5100533;28;20035;-88
2021/01/11 01:48:31;;;;;;;27.52;18.00;;;;;;;;;;5100086;28;20035;-89
2021/01/11 01:50:58;;;;;;;29.00;19.00;;;;;;;;;;5100504;28;20035;-89
2021/01/11 01:53:24;;;;;;;25.55;17.67;;;;;;;;;;5101110;28;20083;-91
2021/01/11 01:55:53;;;;;;;27.98;19.63;;;;;;;;;;5118027;28;20505;-87
2021/01/11 01:58:21;;;;;;;27.20;18.48;;;;;;;;;;5095461;28;20039;-88
2021/01/11 02:00:48;;;;;;;29.67;18.77;;;;;;;;;;5095665;28;20028;-89
2021/01/11 02:03:14;;;;;;;25.83;17.63;;;;;;;;;;5095924;28;20221;-89
2021/01/11 02:05:40;;;;;;;28.00;18.25;;;;;;;;;;5096125;28;20028;-87
2021/01/11 02:08:10;;;;;;;30.02;19.42;;;;;;;;;;5096478;28;20032;-87
2021/01/11 02:10:56;;;;;;;26.85;18.92;;;;;;;;;;5096751;28;20089;-89
2021/01/11 02:13:31;;;;;;;25.67;17.30;;;;;;;;;;5055909;28;20200;-90
2021/01/11 02:16:03;;;;;;;32.85;19.73;;;;;;;;;;5097146;28;20063;-88
2021/01/11 02:18:51;;;;;;;24.08;16.90;;;;;;;;;;5097705;28;20035;-90
2021/01/11 02:21:23;;;;;;;30.88;19.25;;;;;;;;;;5098422;28;20042;-90
2021/01/11 02:24:18;;;;;;;27.00;18.23;;;;;;;;;;5097789;28;20051;-89
2021/01/11 02:26:51;;;;;;;30.25;20.73;;;;;;;;;;5097311;28;20028;-89
2021/01/11 02:29:28;;;;;;;28.98;19.70;;;;;;;;;;5111357;28;20387;-89
2021/01/11 02:31:55;;;;;;;26.45;18.30;;;;;;;;;;5101317;28;20032;-89
2021/01/11 02:34:21;;;;;;;26.58;18.42;;;;;;;;;;5119599;28;20027;-89
2021/01/11 02:36:48;;;;;;;31.65;20.85;;;;;;;;;;5101530;28;20426;-90
2021/01/11 02:39:14;;;;;;;28.70;17.42;;;;;;;;;;5118826;28;20028;-89
2021/01/11 02:41:40;;;;;;;29.40;19.92;;;;;;;;;;5101520;28;20031;-89
2021/01/11 02:44:06;;;;;;;31.67;19.90;;;;;;;;;;5119271;28;20516;-90
2021/01/11 02:46:32;;;;;;;31.40;20.90;;;;;;;;;;5118696;28;20034;-88
2021/01/11 02:49:00;;;;;;;31.65;22.27;;;;;;;;;;5101400;28;20024;-88
2021/01/11 02:51:26;;;;;;;35.25;23.52;;;;;;;;;;5119210;28;20080;-89
2021/01/11 02:54:11;;;;;;;33.40;22.67;;;;;;;;;;5119715;28;20030;-89
2021/01/11 02:56:43;;;;;;;31.45;20.40;;;;;;;;;;5119381;28;20064;-90
2021/01/11 02:59:14;;;;;;;37.38;23.52;;;;;;;;;;5101423;28;20032;-87
2021/01/11 03:01:46;;;;;;;34.90;22.60;;;;;;;;;;5101211;28;20351;-86
2021/01/11 03:04:18;;;;;;;38.90;25.63;;;;;;;;;;5118676;28;20353;-86
2021/01/11 03:06:53;;;;;;;39.15;27.83;;;;;;;;;;5100334;28;20034;-89
2021/01/11 03:09:19;;;;;;;33.95;23.25;;;;;;;;;;5118842;28;20167;-88
2021/01/11 03:11:45;;;;;;;36.20;24.48;;;;;;;;;;5101185;28;20023;-87
2021/01/11 03:14:11;;;;;;;38.92;27.35;;;;;;;;;;5101293;28;20122;-88
2021/01/11 03:16:37;;;;;;;39.58;27.23;;;;;;;;;;5100735;28;20034;-88
2021/01/11 03:19:03;;;;;;;41.42;27.40;;;;;;;;;;5101498;28;20028;-87
2021/01/11 03:21:32;;;;;;;39.95;27.02;;;;;;;;;;5101824;28;20038;-86
2021/01/11 03:23:58;;;;;;;;;;;;;;;;;;5101549;28;20050;-89
2021/01/11 03:26:25;;;;;;;45.20;29.05;;;;;;;;;;5119327;28;20001;-89
2021/01/11 03:28:51;;;;;;;43.15;27.67;;;;;;;;;;5119140;28;20027;-85
2021/01/11 03:31:17;;;;;;;40.20;25.52;;;;;;;;;;5100797;28;20054;-89
2021/01/11 03:33:43;;;;;;;43.63;27.20;;;;;;;;;;5117979;28;20024;-89
2021/01/11 03:36:10;;;;;;;39.17;27.08;;;;;;;;;;5094467;28;20032;-90
2021/01/11 03:38:36;;;;;;;41.13;28.40;;;;;;;;;;5097325;28;20038;-87
2021/01/11 03:41:09;;;;;;;39.33;25.38;;;;;;;;;;5097958;28;20024;-89
2021/01/11 03:43:42;;;;;;;39.80;25.80;;;;;;;;;;5097080;28;20032;-88
2021/01/11 03:46:09;;;;;;;43.13;30.27;;;;;;;;;;5096963;28;20355;-89
2021/01/11 03:48:35;;;;;;;42.90;29.45;;;;;;;;;;5096581;28;20054;-90
2021/01/11 03:51:01;;;;;;;40.22;27.95;;;;;;;;;;5097818;28;20028;-89
2021/01/11 03:53:27;;;;;;;41.40;27.30;;;;;;;;;;5097294;28;20032;-88
2021/01/11 03:55:54;;;;;;;42.88;29.50;;;;;;;;;;5097437;28;20312;-89
2021/01/11 03:58:20;;;;;;;41.65;28.85;;;;;;;;;;5096643;28;20130;-90
2021/01/11 04:00:50;;;;;;;42.17;28.60;;;;;;;;;;5098463;28;20096;-88
2021/01/11 04:03:16;;;;;;;42.67;29.20;;;;;;;;;;5096663;28;20139;-90
2021/01/11 04:05:43;;;;;;;36.10;26.15;;;;;;;;;;5096669;28;20023;-87
2021/01/11 04:08:09;;;;;;;44.55;30.10;;;;;;;;;;5097892;28;20050;-88
2021/01/11 04:10:35;;;;;;;39.75;27.90;;;;;;;;;;5096316;28;20020;-90
2021/01/11 04:13:02;;;;;;;47.03;30.85;;;;;;;;;;5097521;28;20069;-89
2021/01/11 04:15:28;;;;;;;39.88;28.13;;;;;;;;;;5097208;28;20032;-89
2021/01/11 04:17:54;;;;;;;41.10;31.33;;;;;;;;;;5097040;28;20494;-90
2021/01/11 04:20:20;;;;;;;44.72;30.13;;;;;;;;;;5097725;28;20081;-90
2021/01/11 04:22:46;;;;;;;42.80;30.52;;;;;;;;;;5097264;28;20035;-91
2021/01/11 04:25:15;;;;;;;42.75;31.05;;;;;;;;;;5097216;28;20042;-90
2021/01/11 04:27:41;;;;;;;;;;;;;;;;;;5097633;28;20028;-89
2021/01/11 04:30:08;;;;;;;44.67;29.17;;;;;;;;;;5097114;28;19912;-89
2021/01/11 04:32:35;;;;;;;43.80;30.95;;;;;;;;;;5096185;28;20034;-89
2021/01/11 04:35:10;;;;;;;46.90;29.98;;;;;;;;;;5096451;28;20034;-88
2021/01/11 04:37:37;;;;;;;43.97;31.55;;;;;;;;;;5096158;28;20036;-87
2021/01/11 04:40:04;;;;;;;42.33;28.65;;;;;;;;;;5097465;28;20170;-86
2021/01/11 04:42:54;;;;;;;45.50;29.70;;;;;;;;;;5096898;28;20040;-90
2021/01/11 04:45:24;;;;;;;45.17;32.53;;;;;;;;;;5068287;28;20101;-88
2021/01/11 04:47:55;;;;;;;45.60;31.63;;;;;;;;;;5100658;28;20036;-89
2021/01/11 04:50:22;;;;;;;47.15;32.33;;;;;;;;;;5103855;28;20039;-89
2021/01/11 04:52:48;;;;;;;43.03;30.83;;;;;;;;;;5103747;28;20027;-90
2021/01/11 04:55:14;;;;;;;42.63;29.55;;;;;;;;;;5105507;28;20027;-89
2021/01/11 04:57:50;;;;;;;44.05;30.80;;;;;;;;;;5101455;28;20024;-87
2021/01/11 05:00:18;;;;;;;42.75;29.10;;;;;;;;;;5104700;28;20088;-88
2021/01/11 05:02:45;;;;;;;40.67;28.85;;;;;;;;;;5103092;28;20031;-89
2021/01/11 05:05:14;;;;;;;42.28;30.25;;;;;;;;;;5104432;28;20063;-85
2021/01/11 05:07:40;;;;;;;38.80;28.00;;;;;;;;;;5102834;28;20059;-88
2021/01/11 05:10:09;;;;;;;40.55;28.60;;;;;;;;;;5103589;28;20067;-88
2021/01/11 05:12:35;;;;;;;42.53;28.85;;;;;;;;;;5103465;28;20019;-89
2021/01/11 05:15:17;;;;;;;38.55;27.27;;;;;;;;;;5102546;28;20040;-89
2021/01/11 05:17:44;;;;;;;39.03;27.15;;;;;;;;;;5102213;28;20035;-89
2021/01/11 05:20:10;;;;;;;33.05;23.80;;;;;;;;;;5102792;28;20031;-88
2021/01/11 05:22:36;;;;;;;35.72;26.42;;;;;;;;;;5121626;28;20031;-88
2021/01/11 05:25:13;;;;;;;34.03;23.33;;;;;;;;;;5103454;28;20051;-88
2021/01/11 05:27:39;;;;;;;33.88;23.33;;;;;;;;;;5104216;28;20024;-88
2021/01/11 05:30:07;;;;;;;30.90;24.25;;;;;;;;;;5103933;28;20035;-87
2021/01/11 05:32:33;;;;;;;33.93;24.97;;;;;;;;;;5123053;28;20072;-88
2021/01/11 05:34:59;;;;;;;34.72;25.77;;;;;;;;;;5106828;28;20035;-86
2021/01/11 05:37:32;;;;;;;32.67;23.95;;;;;;;;;;5104726;28;20023;-89
2021/01/11 05:40:09;;;;;;;36.45;25.05;;;;;;;;;;5115607;28;20035;-87
2021/01/11 05:42:38;;;;;;;32.90;23.60;;;;;;;;;;5121742;28;20008;-88
2021/01/11 05:45:21;;;;;;;29.95;21.88;;;;;;;;;;5119247;28;20066;-86
2021/01/11 05:48:06;;;;;;;31.80;22.88;;;;;;;;;;5120974;28;20033;-88
2021/01/11 05:50:34;;;;;;;32.15;23.23;;;;;;;;;;5119390;28;20023;-87
2021/01/11 05:53:00;;;;;;;29.40;21.67;;;;;;;;;;5139350;28;20003;-88
2021/01/11 05:55:28;;;;;;;32.30;23.80;;;;;;;;;;5121615;28;20015;-88
2021/01/11 05:57:55;;;;;;;33.22;24.38;;;;;;;;;;5120402;28;20115;-86
2021/01/11 06:00:22;;;;;;;30.55;21.90;;;;;;;;;;5119479;28;20035;-84
2021/01/11 06:02:49;;;;;;;35.35;24.35;;;;;;;;;;5119120;28;20302;-89
2021/01/11 06:05:18;;;;;;;35.58;24.38;;;;;;;;;;5137775;28;20035;-86
2021/01/11 06:07:47;;;;;;;33.17;25.25;;;;;;;;;;5120578;28;20167;-88
2021/01/11 06:10:14;;;;;;;34.83;25.02;;;;;;;;;;5137555;28;20031;-85
2021/01/11 06:12:41;;;;;;;36.65;26.35;;;;;;;;;;5119167;28;20096;-90
2021/01/11 06:15:12;;;;;;;33.15;23.23;;;;;;;;;;5118245;28;20032;-91
2021/01/11 06:17:39;;;;;;;36.25;25.17;;;;;;;;;;5134058;28;20007;-88
2021/01/11 06:20:06;;;;;;;36.75;25.92;;;;;;;;;;5109741;28;20151;-87
2021/01/11 06:22:44;;;;;;;39.05;25.70;;;;;;;;;;5123914;28;20346;-89
2021/01/11 06:25:20;;;;;;;38.58;25.98;;;;;;;;;;5102591;28;20096;-89
2021/01/11 06:28:02;;;;;;;34.85;23.88;;;;;;;;;;5120288;28;20031;-88
2021/01/11 06:30:37;;;;;;;36.28;24.17;;;;;;;;;;5104839;28;20023;-88
2021/01/11 06:33:07;;;;;;;31.10;23.30;;;;;;;;;;5100996;28;20108;-88
2021/01/11 06:35:37;;;;;;;33.83;23.40;;;;;;;;;;5121311;28;20066;-89
2021/01/11 06:38:07;;;;;;;36.03;23.98;;;;;;;;;;5096385;28;20054;-90
2021/01/11 06:40:34;;;;;;;40.88;24.95;;;;;;;;;;5100635;28;20031;-87
2021/01/11 06:43:00;;;;;;;37.47;25.83;;;;;;;;;;5100787;28;20920;-88
2021/01/11 06:45:55;;;;;;;37.50;27.13;;;;;;;;;;5099756;28;20357;-89
2021/01/11 06:48:23;;;;;;;35.90;24.55;;;;;;;;;;5096032;28;20039;-88
2021/01/11 06:50:51;;;;;;;38.20;24.77;;;;;;;;;;5099746;28;20042;-89
2021/01/11 06:53:27;;;;;;;39.45;26.52;;;;;;;;;;5098797;28;20016;-89
2021/01/11 06:56:23;;;;;;;41.83;27.58;;;;;;;;;;5103455;28;20031;-86
2021/01/11 06:58:49;;;;;;;30.98;21.98;;;;;;;;;;5073640;28;20088;-88
2021/01/11 07:01:15;;;;;;;41.67;26.02;;;;;;;;;;5099418;28;20031;-89
2021/01/11 07:03:45;;;;;;;37.70;24.83;;;;;;;;;;5098627;28;20035;-90
2021/01/11 07:06:11;;;;;;;;;;;;;;;;;;5119471;28;20027;-91
2021/01/11 07:08:37;;;;;;;34.95;25.50;;;;;;;;;;5098957;28;19915;-87
2021/01/11 07:11:04;;;;;;;37.67;24.75;;;;;;;;;;5100045;28;20024;-91
2021/01/11 07:13:31;;;;;;;38.05;23.17;;;;;;;;;;5100260;28;20046;-89
2021/01/11 07:15:57;;;;;;;39.60;25.50;;;;;;;;;;5095504;28;20027;-89
2021/01/11 07:18:38;;;;;;;36.45;24.60;;;;;;;;;;5095018;28;20024;-88
2021/01/11 07:21:15;;;;;;;37.08;26.48;;;;;;;;;;5094070;28;20035;-90
2021/01/11 07:23:41;;;;;;;37.25;24.23;;;;;;;;;;5090929;28;20112;-87
2021/01/11 07:26:11;;;;;;;37.22;25.17;;;;;;;;;;5098315;28;20027;-87
2021/01/11 07:28:38;;;;;;;43.45;25.75;;;;;;;;;;5108377;28;20047;-88
2021/01/11 07:31:07;;;;;;;39.53;25.92;;;;;;;;;;5104536;28;20038;-89
2021/01/11 07:33:33;;;;;;;40.78;24.77;;;;;;;;;;5116916;28;20031;-90
2021/01/11 07:35:59;;;;;;;40.20;25.35;;;;;;;;;;5114443;28;20122;-89
2021/01/11 07:38:26;;;;;;;37.17;25.23;;;;;;;;;;5097800;28;20035;-90
2021/01/11 07:41:01;;;;;;;35.55;24.73;;;;;;;;;;5111981;28;20019;-90
2021/01/11 07:43:27;;;;;;;40.28;27.50;;;;;;;;;;5097507;28;20040;-90
2021/01/11 07:46:03;;;;;;;45.05;28.48;;;;;;;;;;5109640;28;20027;-91
2021/01/11 07:48:29;;;;;;;42.38;26.83;;;;;;;;;;5114218;28;20116;-88
2021/01/11 07:51:08;;;;;;;38.33;26.63;;;;;;;;;;5118158;28;20343;-88
2021/01/11 07:53:38;;;;;;;45.47;24.55;;;;;;;;;;5105730;28;20096;-88
2021/01/11 07:56:08;;;;;;;38.25;24.90;;;;;;;;;;5099888;28;20032;-86
2021/01/11 07:58:36;;;;;;;38.72;26.23;;;;;;;;;;5099751;28;20035;-88
2021/01/11 08:01:03;;;;;;;37.45;23.75;;;;;;;;;;5111829;28;20024;-91
2021/01/11 08:03:29;;;;;;;42.08;26.13;;;;;;;;;;5098504;28;20051;-89
2021/01/11 08:06:03;;;;;;;37.40;24.58;;;;;;;;;;5097062;28;20028;-89
2021/01/11 08:08:58;;;;;;;40.58;24.08;;;;;;;;;;5098287;28;20114;-89
2021/01/11 08:11:25;;;;;;;34.80;24.17;;;;;;;;;;5095706;28;20093;-87
2021/01/11 08:13:51;;;;;;;41.03;27.92;;;;;;;;;;5099687;28;20046;-88
2021/01/11 08:16:17;;;;;;;37.80;24.50;;;;;;;;;;5103701;28;20036;-90
2021/01/11 08:18:43;;;;;;;43.25;25.92;;;;;;;;;;5104331;28;20039;-86
2021/01/11 08:21:10;;;;;;;38.78;25.27;;;;;;;;;;5111316;28;20118;-89
2021/01/11 08:23:37;;;;;;;34.38;24.90;;;;;;;;;;5100166;28;20117;-88
2021/01/11 08:26:10;;;;;;;34.60;25.10;;;;;;;;;;5111782;28;20052;-88
2021/01/11 08:28:37;;;;;;;35.55;22.40;;;;;;;;;;5102306;28;20020;-87
2021/01/11 08:31:04;;;;;;;38.75;25.15;;;;;;;;;;5098754;28;20023;-87
2021/01/11 08:33:36;;;;;;;35.38;25.33;;;;;;;;;;5098584;28;20080;-89
2021/01/11 08:36:23;;;;;;;36.08;25.90;;;;;;;;;;5096040;28;20138;-86
2021/01/11 08:39:09;;;;;;;35.72;25.33;;;;;;;;;;5096903;28;20056;-88
2021/01/11 08:41:37;;;;;;;36.90;24.13;;;;;;;;;;5113873;28;20032;-88
2021/01/11 08:44:04;;;;;;;38.92;26.13;;;;;;;;;;5100555;28;20046;-86
2021/01/11 08:46:49;;;;;;;31.58;22.55;;;;;;;;;;5102918;28;20024;-88
2021/01/11 08:49:15;;;;;;;31.55;21.20;;;;;;;;;;5096013;28;20405;-86
2021/01/11 08:51:43;;;;;;;32.65;22.58;;;;;;;;;;5104877;28;20054;-88
2021/01/11 08:54:09;;;;;;;33.42;22.73;;;;;;;;;;5100604;28;20024;-85
2021/01/11 08:56:36;;;;;;;36.85;24.90;;;;;;;;;;5103648;28;20016;-85
2021/01/11 08:59:02;;;;;;;33.55;23.98;;;;;;;;;;5095879;28;20028;-87
2021/01/11 09:01:35;;;;;;;34.08;21.00;;;;;;;;;;5101342;28;20035;-88
2021/01/11 09:04:02;;;;;;;35.65;20.55;;;;;;;;;;5099782;28;20050;-89
2021/01/11 09:06:38;;;;;;;40.60;25.42;;;;;;;;;;5101425;28;20311;-90
2021/01/11 09:09:24;;;;;;;30.05;20.00;;;;;;;;;;5119286;28;20031;-88
2021/01/11 09:11:59;;;;;;;29.83;21.40;;;;;;;;;;5118605;28;20047;-86
2021/01/11 09:14:25;;;;;;;33.10;22.13;;;;;;;;;;5101501;28;20438;-88
2021/01/11 09:16:56;;;;;;;29.83;21.63;;;;;;;;;;5101866;28;20027;-88
2021/01/11 09:19:22;;;;;;;32.92;21.73;;;;;;;;;;5117492;28;20141;-86
2021/01/11 09:21:59;;;;;;;33.20;22.67;;;;;;;;;;5104027;28;20028;-89
2021/01/11 09:24:26;;;;;;;31.95;21.27;;;;;;;;;;5095642;28;20038;-88
2021/01/11 09:26:53;;;;;;;29.80;20.23;;;;;;;;;;5099808;28;20550;-89
2021/01/11 09:29:19;;;;;;;29.45;20.08;;;;;;;;;;5095221;28;20036;-86
2021/01/11 09:31:45;;;;;;;30.95;21.77;;;;;;;;;;5100044;28;20023;-86
2021/01/11 09:34:12;;;;;;;31.05;21.38;;;;;;;;;;5117187;28;20036;-88
2021/01/11 09:36:39;;;;;;;35.28;21.83;;;;;;;;;;5100745;28;20032;-88
2021/01/11 09:39:09;;;;;;;26.80;20.02;;;;;;;;;;5101681;28;20031;-88
2021/01/11 09:41:42;;;;;;;28.85;21.15;;;;;;;;;;5102223;28;20024;-88
2021/01/11 09:44:09;;;;;;;30.30;21.90;;;;;;;;;;5099483;28;20043;-89
2021/01/11 09:46:42;;;;;;;30.85;20.77;;;;;;;;;;5105314;28;20024;-86
2021/01/11 09:49:08;;;;;;;25.20;20.10;;;;;;;;;;5098107;28;20031;-89
2021/01/11 09:51:35;;;;;;;27.67;20.00;;;;;;;;;;5100442;28;20384;-87
2021/01/11 09:54:01;;;;;;;33.03;21.02;;;;;;;;;;5098760;28;20035;-85
2021/01/11 09:56:27;;;;;;;31.20;20.88;;;;;;;;;;5101383;28;20350;-88
2021/01/11 09:58:54;;;;;;;34.67;21.17;;;;;;;;;;5115728;28;20024;-89
2021/01/11 10:01:24;;;;;;;27.35;20.25;;;;;;;;;;5097090;28;20045;-87
2021/01/11 10:03:54;;;;;;;30.13;20.05;;;;;;;;;;5103859;28;20107;-86
2021/01/11 10:06:23;;;;;;;28.67;20.35;;;;;;;;;;5100550;28;20027;-88
2021/01/11 10:08:49;;;;;;;35.67;21.08;;;;;;;;;;5094830;28;20024;-88
2021/01/11 10:11:15;;;;;;;31.65;21.67;;;;;;;;;;5099096;28;20039;-89
2021/01/11 10:13:44;;;;;;;30.80;20.05;;;;;;;;;;5100569;28;20034;-87
2021/01/11 10:16:10;;;;;;;27.42;20.45;;;;;;;;;;5116190;28;20032;-89
2021/01/11 10:18:38;;;;;;;26.10;18.48;;;;;;;;;;5097815;28;20035;-91
2021/01/11 10:21:04;;;;;;;35.33;20.90;;;;;;;;;;5114150;28;20050;-87
2021/01/11 10:23:30;;;;;;;24.88;18.48;;;;;;;;;;5099158;28;20063;-86
2021/01/11 10:25:56;;;;;;;26.15;19.67;;;;;;;;;;5097717;28;20028;-84
2021/01/11 10:28:25;;;;;;;26.25;18.80;;;;;;;;;;5097013;28;20059;-88
2021/01/11 10:31:01;;;;;;;29.35;19.83;;;;;;;;;;5096863;28;20039;-87
2021/01/11 10:33:27;;;;;;;29.15;18.80;;;;;;;;;;5096596;28;20035;-88
2021/01/11 10:35:56;;;;;;;29.30;19.48;;;;;;;;;;5099666;28;20028;-90
2021/01/11 10:38:22;;;;;;;;;;;;;;;;;;5100691;28;20027;-88
2021/01/11 10:40:49;;;;;;;23.80;18.05;;;;;;;;;;5112327;28;19918;-88
2021/01/11 10:43:17;;;;;;;27.60;18.40;;;;;;;;;;5103019;28;20039;-89
2021/01/11 10:45:43;;;;;;;24.95;18.38;;;;;;;;;;5102083;28;20030;-85
2021/01/11 10:48:09;;;;;;;27.70;19.30;;;;;;;;;;5097472;28;20126;-89
2021/01/11 10:50:38;;;;;;;24.92;18.95;;;;;;;;;;5100118;28;20363;-90
2021/01/11 10:53:04;;;;;;;27.38;17.05;;;;;;;;;;5113700;28;20031;-87
2021/01/11 10:55:31;;;;;;;27.23;18.08;;;;;;;;;;5096488;28;20393;-85
2021/01/11 10:57:57;;;;;;;27.08;18.08;;;;;;;;;;5104787;28;20082;-87
2021/01/11 11:00:23;;;;;;;24.80;17.65;;;;;;;;;;5098650;28;20401;-84
2021/01/11 11:02:49;;;;;;;25.85;18.50;;;;;;;;;;5098498;28;20331;-85
2021/01/11 11:05:16;;;;;;;24.05;18.00;;;;;;;;;;5097885;28;20068;-86
2021/01/11 11:07:43;;;;;;;24.65;18.25;;;;;;;;;;5097682;28;20024;-87
2021/01/11 11:10:22;;;;;;;24.25;17.05;;;;;;;;;;5118514;28;20046;-91
2021/01/11 11:12:49;;;;;;;32.60;17.50;;;;;;;;;;5100183;28;20035;-88
2021/01/11 11:15:16;;;;;;;25.70;17.70;;;;;;;;;;5117017;28;20031;-86
2021/01/11 11:17:42;;;;;;;27.40;18.45;;;;;;;;;;5112844;28;20085;-86
2021/01/11 11:20:08;;;;;;;26.48;17.23;;;;;;;;;;5116410;28;20068;-86
2021/01/11 11:22:36;;;;;;;38.03;16.73;;;;;;;;;;5096067;28;20087;-88
2021/01/11 11:25:08;;;;;;;23.58;16.80;;;;;;;;;;5099278;28;20063;-83
2021/01/11 11:27:35;;;;;;;24.17;16.38;;;;;;;;;;5098664;28;20030;-87
2021/01/11 11:30:01;;;;;;;24.38;16.63;;;;;;;;;;5099380;28;20037;-88
2021/01/11 11:32:29;;;;;;;23.00;16.02;;;;;;;;;;5098365;28;20015;-86
2021/01/11 11:34:56;;;;;;;23.52;16.77;;;;;;;;;;5098652;28;20095;-87
2021/01/11 11:37:24;;;;;;;20.95;15.10;;;;;;;;;;5098570;28;20034;-88
2021/01/11 11:39:52;;;;;;;22.98;15.85;;;;;;;;;;5098149;28;20025;-86
2021/01/11 11:42:18;;;;;;;21.93;16.13;;;;;;;;;;5101419;28;20023;-85
2021/01/11 11:44:47;;;;;;;20.48;15.25;;;;;;;;;;5099195;28;20128;-87
2021/01/11 11:47:17;;;;;;;22.90;15.48;;;;;;;;;;5100481;28;20134;-88
2021/01/11 11:49:43;;;;;;;24.13;15.90;;;;;;;;;;5100823;28;20028;-88
2021/01/11 11:52:15;;;;;;;22.55;15.40;;;;;;;;;;5099902;28;20067;-84
2021/01/11 11:54:42;;;;;;;18.80;14.40;;;;;;;;;;5100561;28;20028;-91
2021/01/11 11:57:08;;;;;;;21.50;13.70;;;;;;;;;;5099579;28;20039;-88
2021/01/11 11:59:34;;;;;;;23.02;15.68;;;;;;;;;;5117672;28;20027;-86
2021/01/11 12:02:16;;;;;;;20.88;14.20;;;;;;;;;;5117683;28;20046;-88
2021/01/11 12:04:42;;;;;;;21.85;14.70;;;;;;;;;;5111637;28;20038;-88
2021/01/11 12:07:13;;;;;;;18.60;13.88;;;;;;;;;;5097778;28;20046;-86
2021/01/11 12:09:45;;;;;;;18.42;13.85;;;;;;;;;;5096462;28;20069;-88
2021/01/11 12:12:15;;;;;;;20.17;14.93;;;;;;;;;;5096632;28;20067;-88
2021/01/11 12:14:41;;;;;;;23.65;14.95;;;;;;;;;;5097975;28;20160;-88
2021/01/11 12:17:08;;;;;;;21.75;14.55;;;;;;;;;;5096478;28;20031;-88
2021/01/11 12:19:37;;;;;;;20.92;13.68;;;;;;;;;;5097835;28;20024;-89
2021/01/11 12:22:03;;;;;;;;;;;;;;;;;;5093103;28;20031;-88
2021/01/11 12:24:29;;;;;;;20.38;12.73;;;;;;;;;;5097267;28;19915;-86
2021/01/11 12:26:57;;;;;;;22.73;14.27;;;;;;;;;;5115907;28;20419;-88
2021/01/11 12:29:23;;;;;;;20.52;14.35;;;;;;;;;;5097341;28;20039;-86
2021/01/11 12:31:53;;;;;;;17.30;13.57;;;;;;;;;;5096691;28;20015;-84
2021/01/11 12:34:19;;;;;;;19.30;13.45;;;;;;;;;;5097209;28;20107;-87
2021/01/11 12:36:45;;;;;;;17.33;12.63;;;;;;;;;;5098709;28;20042;-85
2021/01/11 12:39:11;;;;;;;21.75;13.85;;;;;;;;;;5098110;28;20441;-88
2021/01/11 12:41:38;;;;;;;19.38;12.70;;;;;;;;;;5089944;28;20066;-85
2021/01/11 12:44:11;;;;;;;15.07;11.50;;;;;;;;;;5079111;28;20051;-86
2021/01/11 12:46:37;;;;;;;21.23;12.18;;;;;;;;;;5113789;28;20034;-88
2021/01/11 12:49:05;;;;;;;15.35;11.07;;;;;;;;;;5095250;28;20042;-87
2021/01/11 12:51:31;;;;;;;17.52;11.35;;;;;;;;;;5095467;28;20138;-89
2021/01/11 12:53:57;;;;;;;15.75;10.98;;;;;;;;;;5088387;28;20709;-89
2021/01/11 12:56:27;;;;;;;16.38;11.65;;;;;;;;;;5093621;28;20268;-84
2021/01/11 12:58:54;;;;;;;15.65;11.60;;;;;;;;;;5097100;28;20118;-87
2021/01/11 13:01:24;;;;;;;18.55;12.18;;;;;;;;;;5095586;28;20027;-87
2021/01/11 13:03:51;;;;;;;14.90;11.27;;;;;;;;;;5097855;28;20078;-87
2021/01/11 13:06:25;;;;;;;13.85;11.05;;;;;;;;;;5098628;28;20058;-88
2021/01/11 13:08:52;;;;;;;13.52;10.77;;;;;;;;;;5096709;28;20335;-90
2021/01/11 13:11:19;;;;;;;12.15;9.27;;;;;;;;;;5100314;28;20035;-88
2021/01/11 13:13:50;;;;;;;13.20;10.15;;;;;;;;;;5098842;28;20030;-88
2021/01/11 13:16:27;;;;;;;14.48;10.77;;;;;;;;;;5099477;28;20031;-88
2021/01/11 13:18:54;;;;;;;16.45;10.32;;;;;;;;;;5098928;28;20515;-86
2021/01/11 13:21:21;;;;;;;16.10;10.43;;;;;;;;;;5100059;28;20369;-86
2021/01/11 13:23:48;;;;;;;14.48;9.43;;;;;;;;;;5099559;28;20032;-87
2021/01/11 13:26:22;;;;;;;14.68;10.30;;;;;;;;;;5099727;28;20046;-88
2021/01/11 13:28:48;;;;;;;16.25;10.82;;;;;;;;;;5088935;28;20031;-88
2021/01/11 13:31:14;;;;;;;15.20;9.95;;;;;;;;;;5091101;28;20030;-88
2021/01/11 13:33:47;;;;;;;14.57;10.63;;;;;;;;;;5119795;28;20057;-92
2021/01/11 13:36:20;;;;;;;12.13;10.00;;;;;;;;;;5092287;28;20089;-90
2021/01/11 13:38:48;;;;;;;16.52;9.77;;;;;;;;;;5098151;28;20079;-85
2021/01/11 13:41:14;;;;;;;12.25;9.88;;;;;;;;;;5097182;28;20118;-87
2021/01/11 13:43:42;;;;;;;12.55;9.70;;;;;;;;;;5088160;28;20031;-89
2021/01/11 13:46:09;;;;;;;14.90;9.40;;;;;;;;;;5086904;28;20172;-89
2021/01/11 13:48:38;;;;;;;10.98;9.02;;;;;;;;;;5093018;28;20087;-89
2021/01/11 13:51:07;;;;;;;9.93;8.27;;;;;;;;;;5110972;28;20082;-88
2021/01/11 13:53:41;;;;;;;;;;;;;;;;;;5100947;28;20038;-89
2021/01/11 13:56:09;;;;;;;12.00;9.15;;;;;;;;;;5097738;28;19911;-87
2021/01/11 13:58:35;;;;;;;11.75;8.98;;;;;;;;;;5097543;28;20070;-88
2021/01/11 14:01:01;;;;;;;11.73;9.52;;;;;;;;;;5117354;28;20031;-88
2021/01/11 14:03:28;;;;;;;13.23;8.85;;;;;;;;;;5098158;28;20042;-88
2021/01/11 14:05:54;;;;;;;12.30;9.63;;;;;;;;;;5106441;28;20092;-85
2021/01/11 14:08:20;;;;;;;12.68;9.20;;;;;;;;;;5097278;28;20019;-87
2021/01/11 14:10:48;;;;;;;12.30;8.80;;;;;;;;;;5118657;28;20027;-88
2021/01/11 14:13:14;;;;;;;12.80;8.65;;;;;;;;;;5093879;28;20034;-87
2021/01/11 14:15:40;;;;;;;11.93;9.85;;;;;;;;;;5096746;28;20024;-89
2021/01/11 14:18:06;;;;;;;17.85;8.98;;;;;;;;;;5096751;28;20539;-90
2021/01/11 14:20:33;;;;;;;12.63;9.73;;;;;;;;;;5095604;28;20043;-86
2021/01/11 14:22:59;;;;;;;14.73;10.48;;;;;;;;;;5095919;28;20027;-87
2021/01/11 14:25:25;;;;;;;11.15;8.50;;;;;;;;;;5099559;28;20035;-84
2021/01/11 14:27:52;;;;;;;12.07;9.32;;;;;;;;;;5097473;28;20055;-85
2021/01/11 14:30:19;;;;;;;13.23;9.63;;;;;;;;;;5098628;28;20423;-87